createdAt,value
2022-11-20T00:01:42.733Z,4.70
2022-11-20T00:04:12.840Z,8.25
2022-11-20T00:06:41.329Z,3.83
2022-11-20T00:09:12.726Z,5.93
2022-11-20T00:11:41.434Z,4.47
2022-11-20T00:14:13.754Z,11.85
2022-11-20T00:16:43.297Z,9.80
2022-11-20T00:19:12.663Z,6.13
2022-11-20T00:21:41.336Z,3.03
2022-11-20T00:24:11.530Z,4.38
2022-11-20T00:26:40.226Z,6.05
2022-11-20T00:29:11.189Z,3.33
2022-11-20T00:31:41.041Z,3.45
2022-11-20T00:34:09.711Z,8.32
2022-11-20T00:36:38.342Z,7.13
2022-11-20T00:39:07.361Z,5.07
2022-11-20T00:41:36.179Z,3.83
2022-11-20T00:44:05.152Z,4.97
2022-11-20T00:46:33.942Z,6.97
2022-11-20T00:49:04.075Z,3.83
2022-11-20T00:51:32.569Z,3.63
2022-11-20T00:54:03.142Z,3.38
2022-11-20T00:56:31.676Z,6.90
2022-11-20T00:59:02.055Z,4.35
2022-11-20T01:01:31.452Z,6.43
2022-11-20T01:04:02.259Z,5.40
2022-11-20T01:06:34.434Z,4.97
2022-11-20T01:09:05.963Z,4.40
2022-11-20T01:11:36.025Z,3.22
2022-11-20T01:14:06.643Z,3.97
2022-11-20T01:16:36.510Z,5.55
2022-11-20T01:19:06.985Z,4.20
2022-11-20T01:21:38.511Z,4.50
2022-11-20T01:24:09.163Z,3.17
2022-11-20T01:26:39.882Z,4.63
2022-11-20T01:29:09.144Z,6.72
2022-11-20T01:31:39.456Z,3.33
2022-11-20T01:34:09.666Z,2.65
2022-11-20T01:36:40.674Z,8.43
2022-11-20T01:39:13.508Z,7.03
2022-11-20T01:42:00.068Z,2.72
2022-11-20T01:44:50.055Z,3.10
2022-11-20T01:47:23.161Z,3.85
2022-11-20T01:49:57.228Z,3.30
2022-11-20T01:52:33.345Z,3.30
2022-11-20T01:55:06.688Z,4.68
2022-11-20T01:57:37.901Z,3.55
2022-11-20T02:00:10.490Z,16.52
2022-11-20T02:02:43.978Z,3.85
2022-11-20T02:05:20.910Z,3.58
2022-11-20T02:07:51.687Z,5.45
2022-11-20T02:10:21.278Z,3.92
2022-11-20T02:13:08.485Z,3.40
2022-11-20T02:15:38.202Z,1.73
2022-11-20T02:18:07.808Z,4.18
2022-11-20T02:20:36.414Z,6.78
2022-11-20T02:23:10.900Z,6.93
2022-11-20T02:25:44.017Z,4.53
2022-11-20T02:28:12.801Z,8.93
2022-11-20T02:30:41.650Z,7.00
2022-11-20T02:33:10.509Z,3.80
2022-11-20T02:35:46.345Z,3.83
2022-11-20T02:38:16.524Z,3.63
2022-11-20T02:40:51.429Z,3.65
2022-11-20T02:43:23.296Z,4.57
2022-11-20T02:45:52.272Z,2.90
2022-11-20T02:48:20.973Z,6.32
2022-11-20T02:50:49.355Z,4.25
2022-11-20T02:53:18.613Z,3.38
2022-11-20T02:55:48.687Z,3.63
2022-11-20T02:58:17.380Z,6.57
2022-11-20T03:00:46.422Z,3.10
2022-11-20T03:03:15.496Z,3.05
2022-11-20T03:05:44.926Z,3.58
2022-11-20T03:08:14.251Z,2.33
2022-11-20T03:10:43.328Z,3.95
2022-11-20T03:13:15.054Z,6.18
2022-11-20T03:15:44.082Z,7.20
2022-11-20T03:18:14.621Z,3.25
2022-11-20T03:20:43.758Z,4.53
2022-11-20T03:23:12.446Z,2.25
2022-11-20T03:25:43.200Z,3.15
2022-11-20T03:28:12.713Z,3.17
2022-11-20T03:30:43.820Z,2.25
2022-11-20T03:33:13.629Z,2.08
2022-11-20T03:35:42.236Z,2.25
2022-11-20T03:38:11.199Z,3.20
2022-11-20T03:40:40.359Z,2.50
2022-11-20T03:43:09.894Z,3.20
2022-11-20T03:45:39.262Z,2.30
2022-11-20T03:48:11.179Z,2.20
2022-11-20T03:50:41.142Z,2.40
2022-11-20T03:53:10.609Z,2.35
2022-11-20T03:55:40.346Z,3.47
2022-11-20T03:58:10.445Z,1.90
2022-11-20T04:00:40.423Z,2.88
2022-11-20T04:03:11.602Z,5.53
2022-11-20T04:05:40.700Z,3.58
2022-11-20T04:08:09.908Z,5.85
2022-11-20T04:10:39.244Z,2.10
2022-11-20T04:13:08.937Z,3.03
2022-11-20T04:15:39.624Z,2.25
2022-11-20T04:18:08.313Z,1.63
2022-11-20T04:20:38.342Z,3.00
2022-11-20T04:23:06.817Z,1.80
2022-11-20T04:25:35.419Z,5.03
2022-11-20T04:28:03.784Z,2.55
2022-11-20T04:30:34.431Z,2.55
2022-11-20T04:33:03.062Z,2.55
2022-11-20T04:35:31.579Z,2.25
2022-11-20T04:38:01.740Z,3.25
2022-11-20T04:40:30.954Z,2.83
2022-11-20T04:42:59.754Z,1.73
2022-11-20T04:45:28.761Z,1.80
2022-11-20T04:47:57.370Z,2.60
2022-11-20T04:50:26.064Z,2.65
2022-11-20T04:52:54.568Z,1.90
2022-11-20T04:55:24.475Z,2.28
2022-11-20T04:57:53.541Z,3.08
2022-11-20T05:00:22.475Z,2.72
2022-11-20T05:02:51.309Z,2.90
2022-11-20T05:05:20.621Z,1.42
2022-11-20T05:07:49.453Z,2.88
2022-11-20T05:10:18.260Z,2.70
2022-11-20T05:12:48.525Z,1.75
2022-11-20T05:15:17.572Z,3.28
2022-11-20T05:17:49.794Z,2.17
2022-11-20T05:20:18.818Z,4.57
2022-11-20T05:22:47.827Z,2.53
2022-11-20T05:25:16.842Z,2.15
2022-11-20T05:27:47.072Z,1.95
2022-11-20T05:30:16.547Z,2.13
2022-11-20T05:32:45.387Z,3.38
2022-11-20T05:35:14.207Z,2.40
2022-11-20T05:37:43.396Z,1.83
2022-11-20T05:40:13.596Z,1.55
2022-11-20T05:42:44.661Z,1.95
2022-11-20T05:45:14.698Z,1.85
2022-11-20T05:47:43.094Z,3.35
2022-11-20T05:50:11.936Z,1.52
2022-11-20T05:52:40.917Z,2.38
2022-11-20T05:55:10.419Z,2.05
2022-11-20T05:57:39.618Z,2.38
2022-11-20T06:00:10.014Z,2.05
2022-11-20T06:02:40.286Z,5.68
2022-11-20T06:05:09.867Z,2.65
2022-11-20T06:07:38.680Z,2.13
2022-11-20T06:10:08.103Z,3.50
2022-11-20T06:12:36.871Z,1.42
2022-11-20T06:15:06.440Z,1.85
2022-11-20T06:17:34.813Z,2.60
2022-11-20T06:20:05.346Z,4.10
2022-11-20T06:22:35.667Z,2.70
2022-11-20T06:25:04.994Z,1.70
2022-11-20T06:27:34.435Z,2.13
2022-11-20T06:30:04.007Z,1.70
2022-11-20T06:32:33.832Z,3.70
2022-11-20T06:35:04.577Z,2.78
2022-11-20T06:37:33.901Z,3.22
2022-11-20T06:40:03.570Z,2.60
2022-11-20T06:42:33.465Z,1.95
2022-11-20T06:45:02.235Z,1.60
2022-11-20T06:47:34.397Z,2.35
2022-11-20T06:50:04.470Z,3.97
2022-11-20T06:52:33.202Z,2.58
2022-11-20T06:55:01.869Z,1.92
2022-11-20T06:57:30.785Z,2.25
2022-11-20T06:59:59.226Z,2.00
2022-11-20T07:02:27.641Z,1.70
2022-11-20T07:04:55.966Z,4.53
2022-11-20T07:07:26.020Z,2.38
2022-11-20T07:09:54.509Z,2.67
2022-11-20T07:12:23.087Z,4.10
2022-11-20T07:14:51.617Z,3.80
2022-11-20T07:17:20.179Z,6.25
2022-11-20T07:19:48.663Z,2.33
2022-11-20T07:22:17.174Z,5.35
2022-11-20T07:24:47.117Z,17.85
2022-11-20T07:27:15.727Z,14.05
2022-11-20T07:29:44.355Z,10.10
2022-11-20T07:32:12.933Z,14.40
2022-11-20T07:34:46.963Z,26.33
2022-11-20T07:37:22.308Z,29.50
2022-11-20T07:39:56.593Z,27.58
2022-11-20T07:42:28.632Z,30.33
2022-11-20T07:44:58.870Z,34.67
2022-11-20T07:47:29.564Z,16.73
2022-11-20T07:49:57.982Z,18.25
2022-11-20T07:52:26.452Z,18.33
2022-11-20T07:54:56.329Z,7.90
2022-11-20T07:57:28.277Z,12.25
2022-11-20T07:59:57.071Z,10.63
2022-11-20T08:02:25.652Z,51.15
2022-11-20T08:04:54.578Z,65.55
2022-11-20T08:07:24.363Z,27.38
2022-11-20T08:09:52.955Z,32.42
2022-11-20T08:12:43.351Z,43.00
2022-11-20T08:15:13.468Z,37.65
2022-11-20T08:17:42.506Z,21.05
2022-11-20T08:20:12.011Z,8.32
2022-11-20T08:22:40.570Z,6.72
2022-11-20T08:25:09.785Z,4.30
2022-11-20T08:27:39.831Z,10.38
2022-11-20T08:30:12.155Z,10.15
2022-11-20T08:32:40.954Z,7.03
2022-11-20T08:35:10.846Z,8.05
2022-11-20T08:37:42.579Z,10.73
2022-11-20T08:40:18.340Z,15.75
2022-11-20T08:42:53.681Z,9.30
2022-11-20T08:45:22.564Z,9.70
2022-11-20T08:47:51.104Z,8.23
2022-11-20T08:50:19.999Z,13.38
2022-11-20T08:52:48.520Z,8.73
2022-11-20T08:55:17.040Z,6.28
2022-11-20T08:57:50.566Z,5.95
2022-11-20T09:00:21.396Z,9.40
2022-11-20T09:02:50.000Z,11.10
2022-11-20T09:05:18.834Z,6.72
2022-11-20T09:07:48.871Z,12.20
2022-11-20T09:10:25.805Z,9.85
2022-11-20T09:12:56.165Z,38.80
2022-11-20T09:15:27.866Z,8.68
2022-11-20T09:18:00.568Z,5.90
2022-11-20T09:20:31.008Z,3.38
2022-11-20T09:23:00.040Z,6.13
2022-11-20T09:25:29.339Z,20.27
2022-11-20T09:27:59.092Z,12.35
2022-11-20T09:30:29.656Z,7.45
2022-11-20T09:32:58.787Z,9.57
2022-11-20T09:35:27.583Z,3.78
2022-11-20T09:37:56.587Z,4.93
2022-11-20T09:40:27.907Z,4.40
2022-11-20T09:43:01.970Z,4.43
2022-11-20T09:45:47.029Z,6.05
2022-11-20T09:48:31.299Z,5.82
2022-11-20T09:51:09.794Z,4.45
2022-11-20T09:53:53.511Z,10.70
2022-11-20T09:56:23.195Z,7.13
2022-11-20T09:58:53.646Z,9.40
2022-11-20T10:01:28.268Z,5.93
2022-11-20T10:04:01.167Z,6.40
2022-11-20T10:06:33.087Z,4.30
2022-11-20T10:09:17.210Z,6.60
2022-11-20T10:11:58.846Z,7.45
2022-11-20T10:14:38.095Z,4.00
2022-11-20T10:17:21.193Z,6.25
2022-11-20T10:20:13.191Z,11.35
2022-11-20T10:22:51.498Z,4.10
2022-11-20T10:25:22.406Z,5.55
2022-11-20T10:28:20.925Z,5.30
2022-11-20T10:30:56.506Z,5.68
2022-11-20T10:33:38.781Z,2.83
2022-11-20T10:36:22.191Z,4.53
2022-11-20T10:38:56.173Z,8.30
2022-11-20T10:41:30.010Z,5.78
2022-11-20T10:44:06.905Z,4.15
2022-11-20T10:46:44.697Z,3.53
2022-11-20T10:49:17.150Z,4.63
2022-11-20T10:52:00.148Z,6.45
2022-11-20T10:54:39.230Z,4.30
2022-11-20T10:57:19.824Z,8.10
2022-11-20T11:00:21.574Z,6.65
2022-11-20T11:02:51.844Z,4.95
2022-11-20T11:05:34.824Z,4.05
2022-11-20T11:08:04.935Z,5.50
2022-11-20T11:10:42.618Z,4.80
2022-11-20T11:13:21.795Z,7.00
2022-11-20T11:15:50.088Z,9.52
2022-11-20T11:18:27.282Z,5.93
2022-11-20T11:20:58.574Z,28.30
2022-11-20T11:23:34.928Z,15.80
2022-11-20T11:26:05.405Z,10.73
2022-11-20T11:28:33.904Z,6.80
2022-11-20T11:31:02.229Z,6.85
2022-11-20T11:33:32.002Z,7.53
2022-11-20T11:36:03.758Z,9.13
2022-11-20T11:38:37.515Z,8.45
2022-11-20T11:41:06.690Z,18.48
2022-11-20T11:43:55.173Z,91.72
2022-11-20T11:46:31.003Z,9.77
2022-11-20T11:49:01.103Z,9.95
2022-11-20T11:51:38.456Z,5.93
2022-11-20T11:54:18.538Z,5.60
2022-11-20T11:56:47.910Z,8.80
2022-11-20T11:59:25.116Z,7.68
2022-11-20T12:01:59.107Z,41.95
2022-11-20T12:04:42.573Z,13.80
2022-11-20T12:07:44.740Z,14.00
2022-11-20T12:10:08.299Z,10.75
2022-11-20T12:12:43.167Z,12.43
2022-11-20T12:15:15.097Z,11.98
2022-11-20T12:17:43.593Z,9.02
2022-11-20T12:20:16.187Z,16.05
2022-11-20T12:22:54.830Z,24.75
2022-11-20T12:25:26.488Z,31.13
2022-11-20T12:28:16.649Z,9.95
2022-11-20T12:30:59.447Z,16.10
2022-11-20T12:33:56.279Z,17.67
2022-11-20T12:36:36.653Z,16.13
2022-11-20T12:39:34.003Z,12.18
2022-11-20T12:42:59.168Z,15.45
2022-11-20T12:45:50.988Z,17.70
2022-11-20T12:48:46.061Z,40.10
2022-11-20T12:51:33.165Z,38.55
2022-11-20T12:54:24.277Z,17.10
2022-11-20T12:57:04.252Z,31.25
2022-11-20T13:00:04.698Z,37.78
2022-11-20T13:02:45.784Z,79.22
2022-11-20T13:05:23.838Z,94.03
2022-11-20T13:07:55.151Z,39.55
2022-11-20T13:10:31.651Z,16.95
2022-11-20T13:13:07.081Z,16.60
2022-11-20T13:15:46.938Z,14.48
2022-11-20T13:18:15.935Z,13.30
2022-11-20T13:20:45.348Z,10.80
2022-11-20T13:23:24.803Z,16.05
2022-11-20T13:25:53.790Z,54.88
2022-11-20T13:28:31.912Z,19.02
2022-11-20T13:31:00.999Z,17.23
2022-11-20T13:33:34.757Z,11.30
2022-11-20T13:36:04.983Z,11.98
2022-11-20T13:38:46.010Z,16.65
2022-11-20T13:41:33.111Z,14.32
2022-11-20T13:44:13.224Z,35.92
2022-11-20T13:46:44.964Z,21.73
2022-11-20T13:49:20.261Z,16.58
2022-11-20T13:51:51.675Z,19.48
2022-11-20T13:54:52.861Z,39.65
2022-11-20T13:57:40.049Z,13.88
2022-11-20T14:00:14.543Z,35.90
2022-11-20T14:02:43.545Z,38.25
2022-11-20T14:05:22.363Z,65.22
2022-11-20T14:07:53.924Z,101.10
2022-11-20T14:10:28.363Z,62.92
2022-11-20T14:13:11.546Z,66.03
2022-11-20T14:15:44.889Z,17.10
2022-11-20T14:18:16.583Z,22.35
2022-11-20T14:20:45.840Z,8.63
2022-11-20T14:23:14.203Z,23.58
2022-11-20T14:25:47.111Z,16.80
2022-11-20T14:28:27.355Z,14.52
2022-11-20T14:30:58.312Z,31.15
2022-11-20T14:33:29.611Z,99.88
2022-11-20T14:36:00.422Z,16.50
2022-11-20T14:38:30.856Z,39.35
2022-11-20T14:41:08.975Z,27.35
2022-11-20T14:43:38.853Z,16.27
2022-11-20T14:46:10.337Z,15.00
2022-11-20T14:48:42.960Z,9.43
2022-11-20T14:51:12.531Z,14.25
2022-11-20T14:53:40.962Z,12.68
2022-11-20T14:56:11.079Z,17.45
2022-11-20T14:58:39.404Z,20.15
2022-11-20T15:01:14.817Z,17.33
2022-11-20T15:03:43.579Z,13.32
2022-11-20T15:06:14.143Z,18.35
2022-11-20T15:08:53.157Z,22.67
2022-11-20T15:11:27.805Z,14.55
2022-11-20T15:13:56.338Z,11.40
2022-11-20T15:16:28.861Z,13.38
2022-11-20T15:18:57.334Z,9.57
2022-11-20T15:21:25.957Z,15.18
2022-11-20T15:23:54.752Z,14.25
2022-11-20T15:26:27.552Z,14.93
2022-11-20T15:28:56.364Z,17.48
2022-11-20T15:31:26.068Z,27.33
2022-11-20T15:33:54.325Z,16.50
2022-11-20T15:36:22.728Z,15.95
2022-11-20T15:38:51.185Z,13.95
2022-11-20T15:41:19.443Z,14.10
2022-11-20T15:43:47.689Z,14.50
2022-11-20T15:46:18.107Z,10.60
2022-11-20T15:48:52.189Z,15.13
2022-11-20T15:51:27.444Z,11.90
2022-11-20T15:53:57.830Z,15.38
2022-11-20T15:56:26.642Z,12.77
2022-11-20T15:58:55.309Z,10.88
2022-11-20T16:01:24.647Z,21.70
2022-11-20T16:03:54.310Z,12.32
2022-11-20T16:06:22.659Z,28.20
2022-11-20T16:08:50.947Z,22.60
2022-11-20T16:11:20.141Z,21.63
2022-11-20T16:14:05.826Z,14.35
2022-11-20T16:16:36.376Z,9.70
2022-11-20T16:19:06.250Z,26.83
2022-11-20T16:21:35.810Z,14.88
2022-11-20T16:24:07.199Z,18.05
2022-11-20T16:26:35.987Z,13.32
2022-11-20T16:29:06.580Z,19.08
2022-11-20T16:31:35.547Z,14.20
2022-11-20T16:34:11.835Z,17.00
2022-11-20T16:36:42.456Z,16.10
2022-11-20T16:39:10.895Z,12.65
2022-11-20T16:41:39.385Z,12.85
2022-11-20T16:44:10.784Z,14.32
2022-11-20T16:46:41.009Z,17.52
2022-11-20T16:49:15.009Z,13.70
2022-11-20T16:51:43.393Z,13.77
2022-11-20T16:54:16.431Z,19.48
2022-11-20T16:56:48.539Z,20.10
2022-11-20T16:59:16.862Z,17.75
2022-11-20T17:01:45.307Z,20.73
2022-11-20T17:04:15.087Z,21.10
2022-11-20T17:06:45.313Z,15.85
2022-11-20T17:09:13.882Z,18.65
2022-11-20T17:11:42.276Z,18.67
2022-11-20T17:14:12.502Z,18.08
2022-11-20T17:16:41.040Z,16.40
2022-11-20T17:19:09.692Z,19.00
2022-11-20T17:21:40.403Z,15.70
2022-11-20T17:24:10.896Z,16.55
2022-11-20T17:26:41.011Z,14.90
2022-11-20T17:29:12.808Z,12.43
2022-11-20T17:31:41.288Z,12.32
2022-11-20T17:34:12.910Z,12.65
2022-11-20T17:36:45.806Z,12.98
2022-11-20T17:39:15.528Z,16.45
2022-11-20T17:41:44.168Z,15.25
2022-11-20T17:44:14.205Z,17.70
2022-11-20T17:46:42.536Z,13.25
2022-11-20T17:49:10.940Z,12.52
2022-11-20T17:51:42.150Z,12.48
2022-11-20T17:54:12.559Z,13.93
2022-11-20T17:56:58.266Z,9.50
2022-11-20T17:59:26.619Z,11.00
2022-11-20T18:01:56.776Z,11.25
2022-11-20T18:04:27.928Z,11.32
2022-11-20T18:06:57.743Z,10.70
2022-11-20T18:09:26.356Z,10.38
2022-11-20T18:11:54.781Z,15.82
2022-11-20T18:14:34.424Z,6.35
2022-11-20T18:17:04.663Z,16.10
2022-11-20T18:19:38.762Z,11.40
2022-11-20T18:22:11.360Z,9.07
2022-11-20T18:24:40.143Z,11.15
2022-11-20T18:27:10.055Z,7.93
2022-11-20T18:29:38.530Z,12.82
2022-11-20T18:32:07.067Z,7.55
2022-11-20T18:34:35.486Z,9.63
2022-11-20T18:37:03.959Z,15.13
2022-11-20T18:39:33.665Z,10.93
2022-11-20T18:42:20.383Z,8.75
2022-11-20T18:44:55.117Z,6.57
2022-11-20T18:47:25.396Z,7.30
2022-11-20T18:49:57.232Z,7.80
2022-11-20T18:52:27.031Z,8.68
2022-11-20T18:54:57.331Z,11.77
2022-11-20T18:57:28.217Z,8.35
2022-11-20T19:00:03.574Z,10.93
2022-11-20T19:02:41.467Z,8.18
2022-11-20T19:05:11.425Z,13.98
2022-11-20T19:07:39.925Z,10.40
2022-11-20T19:10:10.065Z,9.98
2022-11-20T19:12:38.567Z,9.88
2022-11-20T19:15:07.806Z,10.35
2022-11-20T19:17:36.170Z,11.60
2022-11-20T19:20:07.057Z,9.27
2022-11-20T19:22:35.374Z,7.43
2022-11-20T19:25:03.604Z,13.40
2022-11-20T19:27:33.387Z,12.20
2022-11-20T19:30:03.769Z,15.23
2022-11-20T19:32:32.626Z,20.88
2022-11-20T19:35:01.035Z,31.70
2022-11-20T19:37:29.336Z,18.60
2022-11-20T19:39:59.738Z,18.83
2022-11-20T19:42:28.148Z,27.08
2022-11-20T19:44:58.251Z,25.05
2022-11-20T19:47:45.983Z,17.48
2022-11-20T19:50:15.952Z,18.58
2022-11-20T19:52:44.210Z,11.15
2022-11-20T19:55:12.557Z,9.57
2022-11-20T19:57:40.786Z,10.05
2022-11-20T20:00:12.435Z,10.88
2022-11-20T20:02:42.080Z,13.90
2022-11-20T20:05:10.880Z,6.13
2022-11-20T20:07:43.436Z,10.85
2022-11-20T20:10:12.043Z,7.97
2022-11-20T20:12:40.425Z,6.65
2022-11-20T20:15:11.065Z,12.20
2022-11-20T20:17:40.730Z,10.68
2022-11-20T20:20:12.186Z,11.48
2022-11-20T20:22:40.482Z,15.25
2022-11-20T20:25:10.132Z,8.88
2022-11-20T20:27:38.913Z,7.65
2022-11-20T20:30:12.226Z,7.78
2022-11-20T20:32:40.753Z,12.50
2022-11-20T20:35:10.078Z,7.53
2022-11-20T20:37:38.350Z,9.27
2022-11-20T20:40:10.950Z,8.10
2022-11-20T20:42:43.077Z,12.25
2022-11-20T20:45:13.087Z,10.70
2022-11-20T20:47:42.641Z,8.07
2022-11-20T20:50:13.167Z,11.18
2022-11-20T20:52:41.904Z,5.38
2022-11-20T20:55:11.122Z,5.10
2022-11-20T20:57:39.986Z,8.48
2022-11-20T21:00:09.233Z,9.63
2022-11-20T21:02:39.097Z,6.32
2022-11-20T21:05:08.135Z,9.60
2022-11-20T21:07:57.247Z,5.90
2022-11-20T21:10:25.843Z,10.15
2022-11-20T21:12:54.106Z,6.47
2022-11-20T21:15:22.516Z,8.15
2022-11-20T21:17:52.265Z,5.15
2022-11-20T21:20:37.812Z,9.98
2022-11-20T21:23:10.263Z,11.02
2022-11-20T21:25:39.596Z,5.53
2022-11-20T21:28:07.913Z,3.28
2022-11-20T21:30:36.405Z,3.40
2022-11-20T21:33:06.194Z,7.80
2022-11-20T21:35:35.260Z,7.65
2022-11-20T21:38:03.498Z,6.97
2022-11-20T21:40:32.215Z,3.95
2022-11-20T21:43:00.718Z,9.35
2022-11-20T21:45:29.222Z,6.57
2022-11-20T21:47:57.632Z,5.00
2022-11-20T21:50:27.562Z,4.60
2022-11-20T21:52:55.837Z,4.03
2022-11-20T21:55:24.155Z,7.00
2022-11-20T21:57:52.440Z,5.80
2022-11-20T22:00:21.763Z,7.53
2022-11-20T22:02:50.379Z,3.53
2022-11-20T22:05:18.908Z,13.27
2022-11-20T22:07:48.752Z,8.02
2022-11-20T22:10:18.826Z,7.32
2022-11-20T22:12:47.115Z,9.77
2022-11-20T22:15:23.716Z,3.83
2022-11-20T22:18:18.089Z,3.85
2022-11-20T22:20:46.417Z,6.93
2022-11-20T22:23:16.096Z,4.82
2022-11-20T22:25:44.455Z,5.53
2022-11-20T22:28:12.813Z,6.88
2022-11-20T22:30:41.179Z,5.55
2022-11-20T22:33:13.465Z,6.40
2022-11-20T22:35:42.226Z,5.03
2022-11-20T22:38:11.676Z,4.30
2022-11-20T22:40:43.794Z,12.75
2022-11-20T22:43:12.129Z,5.28
2022-11-20T22:45:40.715Z,4.18
2022-11-20T22:48:09.070Z,2.15
2022-11-20T22:50:37.486Z,1.80
2022-11-20T22:53:08.229Z,3.17
2022-11-20T22:55:37.151Z,3.78
2022-11-20T22:58:06.994Z,1.98
2022-11-20T23:00:35.456Z,2.63
2022-11-20T23:03:04.691Z,1.95
2022-11-20T23:05:33.859Z,2.40
2022-11-20T23:08:02.105Z,2.20
2022-11-20T23:10:30.534Z,2.40
2022-11-20T23:12:58.917Z,1.65
2022-11-20T23:15:28.621Z,1.63
2022-11-20T23:17:56.982Z,2.10
2022-11-20T23:20:25.532Z,2.00
2022-11-20T23:22:53.786Z,1.42
2022-11-20T23:25:22.259Z,1.80
2022-11-20T23:27:50.549Z,1.58
2022-11-20T23:30:19.114Z,2.25
2022-11-20T23:32:48.852Z,2.00
2022-11-20T23:35:17.536Z,2.03
2022-11-20T23:37:45.835Z,1.90
2022-11-20T23:40:14.308Z,2.75
2022-11-20T23:43:03.339Z,1.00
2022-11-20T23:45:31.836Z,1.27
2022-11-20T23:48:01.492Z,1.80
2022-11-20T23:50:29.863Z,1.27
2022-11-20T23:52:58.133Z,1.98
2022-11-20T23:55:26.645Z,1.08
2022-11-20T23:57:54.935Z,1.52
